BON327 FAOR-FSIA
Flight info
| Callsign | BON327 |
|---|---|
| Flight time | N/A |
| Altitude | 35000 |
| Route | EGMEN1C EGMEN UQ2 EPSEK UM307 DZP/N0459F370 UM307 NESAM/N0461F360 UM307 OKLAB/N0458F370 DCT GEXOM T150 IMPOX IMPOX1E |
| Aircraft | A320/M-SDE3FGHIRWY/LB1 |
Departure
| Time | 2026-05-04 07:49 |
|---|---|
| Airport | O.R. Tambo International Airport (FAOR) |
Arrival
| Time | N/A |
|---|---|
| Airport | Seychelles International Airport (FSIA) |
| Time | Latitude | Longitude | Altitude | Speed | Heading |
|---|---|---|---|---|---|
| 2026-05-04 06:52 | -26.13840 | 28.23145 | 5549 ft | 0 kts | 186° |
| 2026-05-04 07:08 | -26.13839 | 28.23145 | 5549 ft | 0 kts | 186° |
| 2026-05-04 07:36 | -26.13824 | 28.23147 | 5552 ft | 3 kts | 176° |
| 2026-05-04 07:38 | -26.13785 | 28.23099 | 5547 ft | 0 kts | 96° |
| 2026-05-04 07:40 | -26.13785 | 28.23100 | 5547 ft | 0 kts | 96° |
| 2026-05-04 07:41 | -26.13786 | 28.23106 | 5547 ft | 3 kts | 97° |
| 2026-05-04 07:41 | -26.13789 | 28.23135 | 5547 ft | 5 kts | 97° |
| 2026-05-04 07:41 | -26.13794 | 28.23178 | 5547 ft | 6 kts | 95° |
| 2026-05-04 07:41 | -26.13797 | 28.23223 | 5550 ft | 6 kts | 94° |
| 2026-05-04 07:42 | -26.13801 | 28.23269 | 5547 ft | 6 kts | 97° |
| 2026-05-04 07:42 | -26.13830 | 28.23330 | 5550 ft | 10 kts | 138° |
| 2026-05-04 07:42 | -26.13866 | 28.23394 | 5549 ft | 8 kts | 105° |
| 2026-05-04 07:42 | -26.13878 | 28.23432 | 5555 ft | 5 kts | 116° |
| 2026-05-04 07:43 | -26.13922 | 28.23455 | 5559 ft | 11 kts | 179° |
| 2026-05-04 07:43 | -26.14004 | 28.23432 | 5560 ft | 11 kts | 197° |
| 2026-05-04 07:43 | -26.14069 | 28.23410 | 5564 ft | 9 kts | 197° |
| 2026-05-04 07:43 | -26.14124 | 28.23392 | 5563 ft | 8 kts | 197° |
| 2026-05-04 07:44 | -26.14181 | 28.23374 | 5564 ft | 9 kts | 195° |
| 2026-05-04 07:44 | -26.14242 | 28.23355 | 5563 ft | 9 kts | 195° |
| 2026-05-04 07:44 | -26.14303 | 28.23335 | 5564 ft | 9 kts | 195° |
| 2026-05-04 07:44 | -26.14358 | 28.23318 | 5565 ft | 8 kts | 195° |
| 2026-05-04 07:45 | -26.14431 | 28.23295 | 5564 ft | 15 kts | 196° |
| 2026-05-04 07:45 | -26.14536 | 28.23277 | 5564 ft | 13 kts | 173° |
| 2026-05-04 07:45 | -26.14604 | 28.23327 | 5565 ft | 11 kts | 115° |
| 2026-05-04 07:45 | -26.14624 | 28.23404 | 5567 ft | 10 kts | 104° |
| 2026-05-04 07:46 | -26.14627 | 28.23444 | 5567 ft | 3 kts | 62° |
| 2026-05-04 07:46 | -26.14610 | 28.23452 | 5567 ft | 3 kts | 14° |
| 2026-05-04 07:46 | -26.14554 | 28.23468 | 5566 ft | 27 kts | 14° |
| 2026-05-04 07:46 | -26.14117 | 28.23598 | 5566 ft | 100 kts | 15° |
| 2026-05-04 07:47 | -26.13262 | 28.23859 | 5546 ft | 149 kts | 15° |
| 2026-05-04 07:47 | -26.12156 | 28.24203 | 5533 ft | 181 kts | 15° |
| 2026-05-04 07:47 | -26.10898 | 28.24595 | 5859 ft | 190 kts | 14° |
| 2026-05-04 07:49 | -26.03673 | 28.30786 | 8860 ft | 230 kts | 75° |
| 2026-05-04 07:49 | -26.03313 | 28.32542 | 9211 ft | 239 kts | 69° |
| 2026-05-04 07:49 | -26.02383 | 28.34102 | 9400 ft | 250 kts | 44° |
| 2026-05-04 07:50 | -26.01155 | 28.35573 | 9573 ft | 270 kts | 45° |
| 2026-05-04 07:50 | -25.99846 | 28.37188 | 9774 ft | 290 kts | 46° |
| 2026-05-04 07:50 | -25.98506 | 28.38871 | 10294 ft | 296 kts | 47° |
| 2026-05-04 07:50 | -25.97109 | 28.40639 | 10558 ft | 315 kts | 47° |
| 2026-05-04 07:51 | -25.95624 | 28.42524 | 10690 ft | 335 kts | 47° |
| 2026-05-04 07:51 | -25.94049 | 28.44525 | 10836 ft | 353 kts | 47° |
| 2026-05-04 07:51 | -25.92410 | 28.46609 | 11243 ft | 361 kts | 47° |
| 2026-05-04 07:51 | -25.90752 | 28.48720 | 11782 ft | 364 kts | 47° |
| 2026-05-04 07:52 | -25.89079 | 28.50852 | 12311 ft | 367 kts | 47° |
| 2026-05-04 07:52 | -25.87390 | 28.52998 | 12863 ft | 370 kts | 47° |
| 2026-05-04 07:52 | -25.85684 | 28.55162 | 13396 ft | 373 kts | 47° |
| 2026-05-04 07:52 | -25.83971 | 28.57331 | 13923 ft | 376 kts | 47° |
| 2026-05-04 07:53 | -25.82239 | 28.59522 | 14444 ft | 378 kts | 47° |
| 2026-05-04 07:54 | -25.69957 | 28.75386 | 17739 ft | 396 kts | 46° |
| 2026-05-04 07:55 | -25.68153 | 28.77710 | 18186 ft | 398 kts | 46° |
| 2026-05-04 07:55 | -25.66344 | 28.80043 | 18631 ft | 401 kts | 46° |
| 2026-05-04 07:55 | -25.64521 | 28.82397 | 19053 ft | 404 kts | 46° |
| 2026-05-04 07:55 | -25.62683 | 28.84768 | 19483 ft | 407 kts | 46° |
| 2026-05-04 07:56 | -25.60831 | 28.87155 | 19899 ft | 410 kts | 46° |
| 2026-05-04 07:56 | -25.58986 | 28.89528 | 20320 ft | 412 kts | 46° |
| 2026-05-04 07:56 | -25.57103 | 28.91947 | 20730 ft | 415 kts | 46° |
| 2026-05-04 07:56 | -25.55205 | 28.94381 | 21123 ft | 418 kts | 46° |
| 2026-05-04 07:57 | -25.53295 | 28.96829 | 21502 ft | 420 kts | 46° |
| 2026-05-04 07:57 | -25.51376 | 28.99292 | 21875 ft | 423 kts | 46° |
| 2026-05-04 07:57 | -25.49469 | 29.01736 | 22215 ft | 425 kts | 46° |
| 2026-05-04 07:57 | -25.47526 | 29.04225 | 22574 ft | 427 kts | 46° |
| 2026-05-04 07:58 | -25.45572 | 29.06730 | 22921 ft | 430 kts | 46° |
| 2026-05-04 07:58 | -25.43607 | 29.09249 | 23256 ft | 432 kts | 46° |
| 2026-05-04 07:58 | -25.41631 | 29.11777 | 23599 ft | 434 kts | 46° |
| 2026-05-04 07:58 | -25.39674 | 29.14279 | 23917 ft | 437 kts | 46° |
| 2026-05-04 07:59 | -25.37674 | 29.16834 | 24237 ft | 440 kts | 46° |
| 2026-05-04 07:59 | -25.35662 | 29.19401 | 24543 ft | 442 kts | 46° |
| 2026-05-04 07:59 | -25.33639 | 29.21983 | 24835 ft | 444 kts | 46° |
| 2026-05-04 07:59 | -25.31606 | 29.24581 | 25131 ft | 447 kts | 46° |
| 2026-05-04 08:00 | -25.29566 | 29.27188 | 25408 ft | 449 kts | 46° |
| 2026-05-04 08:00 | -25.27534 | 29.29781 | 25677 ft | 452 kts | 46° |
| 2026-05-04 08:00 | -25.25472 | 29.32404 | 25959 ft | 454 kts | 46° |
| 2026-05-04 08:02 | -25.11423 | 29.50271 | 27871 ft | 466 kts | 46° |
| 2026-05-04 08:02 | -25.09321 | 29.52938 | 28238 ft | 466 kts | 46° |
| 2026-05-04 08:02 | -25.07193 | 29.55632 | 28598 ft | 466 kts | 46° |
| 2026-05-04 08:03 | -25.05053 | 29.58338 | 28951 ft | 466 kts | 46° |
| 2026-05-04 08:03 | -25.02916 | 29.61038 | 29308 ft | 466 kts | 46° |
| 2026-05-04 08:03 | -25.00810 | 29.63700 | 29657 ft | 466 kts | 46° |
| 2026-05-04 08:03 | -24.98680 | 29.66395 | 29997 ft | 466 kts | 46° |
| 2026-05-04 08:04 | -24.96547 | 29.69090 | 30340 ft | 466 kts | 46° |
| 2026-05-04 08:04 | -24.94411 | 29.71793 | 30688 ft | 467 kts | 46° |
| 2026-05-04 08:04 | -24.92279 | 29.74489 | 31023 ft | 467 kts | 46° |
| 2026-05-04 08:04 | -24.90139 | 29.77189 | 31352 ft | 467 kts | 46° |
| 2026-05-04 08:05 | -24.88000 | 29.79887 | 31647 ft | 468 kts | 46° |
| 2026-05-04 08:05 | -24.85860 | 29.82585 | 31965 ft | 468 kts | 46° |
| 2026-05-04 08:05 | -24.83714 | 29.85291 | 32275 ft | 468 kts | 46° |
| 2026-05-04 08:05 | -24.81593 | 29.87964 | 32578 ft | 469 kts | 46° |
| 2026-05-04 08:06 | -24.79441 | 29.90674 | 32899 ft | 469 kts | 46° |
| 2026-05-04 08:06 | -24.77291 | 29.93376 | 33198 ft | 469 kts | 46° |
| 2026-05-04 08:06 | -24.75130 | 29.96088 | 33481 ft | 470 kts | 46° |
| 2026-05-04 08:06 | -24.72962 | 29.98805 | 33753 ft | 470 kts | 46° |
| 2026-05-04 08:08 | -24.57868 | 30.17726 | 35281 ft | 477 kts | 46° |
| 2026-05-04 08:08 | -24.55686 | 30.20455 | 35277 ft | 483 kts | 46° |
| 2026-05-04 08:11 | -24.35456 | 30.45640 | 35270 ft | 490 kts | 46° |
| 2026-05-04 08:11 | -24.28707 | 30.54025 | 35256 ft | 490 kts | 46° |
| 2026-05-04 08:12 | -24.24185 | 30.59630 | 35250 ft | 490 kts | 46° |
| 2026-05-04 08:12 | -24.19655 | 30.65239 | 35249 ft | 490 kts | 46° |
| 2026-05-04 08:13 | -24.15123 | 30.70837 | 35248 ft | 490 kts | 46° |
| 2026-05-04 08:13 | -24.10621 | 30.76408 | 35246 ft | 491 kts | 46° |
| 2026-05-04 08:14 | -24.06096 | 30.82005 | 35244 ft | 490 kts | 46° |
| 2026-05-04 08:16 | -23.87985 | 31.04277 | 35245 ft | 489 kts | 45° |
| 2026-05-04 08:16 | -23.83456 | 31.09835 | 35241 ft | 489 kts | 45° |
| 2026-05-04 08:17 | -23.78926 | 31.15387 | 35241 ft | 489 kts | 45° |
| 2026-05-04 08:17 | -23.74415 | 31.20909 | 35231 ft | 489 kts | 45° |
| 2026-05-04 08:19 | -23.56277 | 31.43033 | 35219 ft | 489 kts | 44° |
| 2026-05-04 08:20 | -23.51731 | 31.48571 | 35215 ft | 489 kts | 44° |
| 2026-05-04 08:20 | -23.47227 | 31.54057 | 35213 ft | 489 kts | 44° |
| 2026-05-04 08:21 | -23.42257 | 31.59026 | 35212 ft | 483 kts | 34° |
| 2026-05-04 08:21 | -23.37008 | 31.63603 | 35206 ft | 483 kts | 34° |
| 2026-05-04 08:22 | -23.31797 | 31.68167 | 35201 ft | 483 kts | 34° |
| 2026-05-04 08:24 | -23.10873 | 31.86447 | 35192 ft | 482 kts | 34° |
| 2026-05-04 08:24 | -23.05633 | 31.91014 | 35192 ft | 482 kts | 34° |
| 2026-05-04 08:25 | -23.00385 | 31.95576 | 35189 ft | 482 kts | 34° |
| 2026-05-04 08:25 | -22.95177 | 32.00107 | 35185 ft | 482 kts | 34° |
| 2026-05-04 08:27 | -22.74569 | 32.18753 | 35182 ft | 481 kts | 34° |
| 2026-05-04 08:28 | -22.69440 | 32.23351 | 35183 ft | 481 kts | 34° |
| 2026-05-04 08:28 | -22.64272 | 32.27982 | 35179 ft | 481 kts | 34° |
| 2026-05-04 08:29 | -22.59146 | 32.32586 | 35176 ft | 481 kts | 34° |
| 2026-05-04 08:31 | -22.38547 | 32.51025 | 35176 ft | 480 kts | 34° |
| 2026-05-04 08:33 | -22.17946 | 32.69392 | 35177 ft | 480 kts | 34° |
| 2026-05-04 08:35 | -21.97379 | 32.87760 | 35176 ft | 481 kts | 35° |
| 2026-05-04 08:35 | -21.92278 | 32.92436 | 35184 ft | 480 kts | 35° |
| 2026-05-04 08:37 | -21.74432 | 33.08559 | 35183 ft | 478 kts | 34° |
| 2026-05-04 08:38 | -21.69294 | 33.13126 | 35177 ft | 478 kts | 34° |
| 2026-05-04 08:38 | -21.64188 | 33.17635 | 35171 ft | 478 kts | 34° |
| 2026-05-04 08:40 | -21.43657 | 33.35827 | 35166 ft | 478 kts | 34° |
| 2026-05-04 08:41 | -21.38557 | 33.40337 | 35164 ft | 477 kts | 34° |
| 2026-05-04 08:41 | -21.33428 | 33.44864 | 35165 ft | 477 kts | 34° |
| 2026-05-04 08:42 | -21.28295 | 33.49399 | 35165 ft | 477 kts | 34° |
| 2026-05-04 08:42 | -21.23152 | 33.53929 | 35166 ft | 477 kts | 34° |
| 2026-05-04 08:43 | -21.18051 | 33.58423 | 35167 ft | 477 kts | 34° |
| 2026-05-04 08:43 | -21.12917 | 33.62942 | 35166 ft | 477 kts | 34° |
| 2026-05-04 08:44 | -21.07803 | 33.67431 | 35174 ft | 477 kts | 34° |
| 2026-05-04 08:46 | -20.87306 | 33.85409 | 35181 ft | 476 kts | 34° |
| 2026-05-04 08:46 | -20.82169 | 33.89893 | 35181 ft | 475 kts | 35° |
| 2026-05-04 08:47 | -20.77076 | 33.94350 | 35181 ft | 475 kts | 35° |
| 2026-05-04 08:47 | -20.71957 | 33.98829 | 35181 ft | 475 kts | 35° |
| 2026-05-04 08:48 | -20.66904 | 34.03403 | 35183 ft | 476 kts | 37° |
| 2026-05-04 08:48 | -20.62015 | 34.08134 | 35185 ft | 477 kts | 38° |
| 2026-05-04 08:49 | -20.57119 | 34.12916 | 35184 ft | 476 kts | 38° |
| 2026-05-04 08:50 | -20.39866 | 34.29328 | 35181 ft | 474 kts | 38° |
| 2026-05-04 08:51 | -20.35759 | 34.33226 | 35178 ft | 474 kts | 37° |
| 2026-05-04 08:51 | -20.30831 | 34.37908 | 35173 ft | 474 kts | 37° |
| 2026-05-04 08:52 | -20.25903 | 34.42577 | 35171 ft | 474 kts | 37° |
| 2026-05-04 08:52 | -20.20973 | 34.47243 | 35170 ft | 474 kts | 37° |
| 2026-05-04 08:54 | -20.01256 | 34.65891 | 35159 ft | 474 kts | 37° |
| 2026-05-04 08:55 | -19.96341 | 34.70522 | 35159 ft | 474 kts | 38° |
| 2026-05-04 08:55 | -19.91398 | 34.75180 | 35158 ft | 474 kts | 38° |
| 2026-05-04 08:57 | -19.75178 | 34.92521 | 35153 ft | 480 kts | 52° |
| 2026-05-04 09:01 | -19.48456 | 35.33223 | 35154 ft | 480 kts | 52° |
| 2026-05-04 09:01 | -19.44641 | 35.39019 | 35154 ft | 481 kts | 52° |
| 2026-05-04 09:02 | -19.40821 | 35.44815 | 35155 ft | 481 kts | 52° |
| 2026-05-04 09:02 | -19.36977 | 35.50626 | 35159 ft | 481 kts | 52° |
| 2026-05-04 09:03 | -19.33132 | 35.56428 | 35160 ft | 480 kts | 52° |
| 2026-05-04 09:03 | -19.29299 | 35.62229 | 35161 ft | 480 kts | 52° |
| 2026-05-04 09:04 | -19.25490 | 35.67989 | 35164 ft | 480 kts | 52° |
| 2026-05-04 09:04 | -19.21666 | 35.73768 | 35162 ft | 479 kts | 52° |
| 2026-05-04 09:05 | -19.17837 | 35.79539 | 35158 ft | 478 kts | 52° |
| 2026-05-04 09:05 | -19.14025 | 35.85267 | 35156 ft | 478 kts | 52° |
| 2026-05-04 09:06 | -19.10196 | 35.91020 | 35152 ft | 478 kts | 52° |
| 2026-05-04 09:08 | -18.94919 | 36.13947 | 35148 ft | 476 kts | 52° |
| 2026-05-04 09:08 | -18.91103 | 36.19666 | 35150 ft | 476 kts | 52° |
| 2026-05-04 09:09 | -18.87283 | 36.25384 | 35151 ft | 475 kts | 52° |
| 2026-05-04 09:09 | -18.83463 | 36.31091 | 35152 ft | 475 kts | 52° |
| 2026-05-04 09:10 | -18.79647 | 36.36795 | 35151 ft | 475 kts | 52° |
| 2026-05-04 09:10 | -18.75841 | 36.42433 | 35150 ft | 474 kts | 52° |
| 2026-05-04 09:11 | -18.71967 | 36.48066 | 35149 ft | 474 kts | 51° |
| 2026-05-04 09:11 | -18.68087 | 36.53702 | 35148 ft | 474 kts | 52° |
| 2026-05-04 09:12 | -18.64234 | 36.59335 | 35148 ft | 473 kts | 52° |
| 2026-05-04 09:14 | -18.48804 | 36.81805 | 35145 ft | 473 kts | 52° |
| 2026-05-04 09:14 | -18.44932 | 36.87431 | 35137 ft | 473 kts | 52° |
| 2026-05-04 09:15 | -18.41084 | 36.93026 | 35146 ft | 474 kts | 52° |
| 2026-05-04 09:15 | -18.37208 | 36.98649 | 35143 ft | 474 kts | 52° |
| 2026-05-04 09:17 | -18.19789 | 37.23866 | 35147 ft | 474 kts | 52° |
| 2026-05-04 09:18 | -18.15899 | 37.29480 | 35147 ft | 474 kts | 52° |
| 2026-05-04 09:18 | -18.12007 | 37.35091 | 35149 ft | 474 kts | 52° |
| 2026-05-04 09:19 | -18.08110 | 37.40701 | 35150 ft | 474 kts | 52° |
| 2026-05-04 09:19 | -18.04212 | 37.46314 | 35150 ft | 475 kts | 52° |
| 2026-05-04 09:20 | -18.00317 | 37.51916 | 35152 ft | 475 kts | 52° |
| 2026-05-04 09:20 | -17.96441 | 37.57491 | 35156 ft | 475 kts | 52° |
| 2026-05-04 09:21 | -17.92545 | 37.63086 | 35158 ft | 474 kts | 52° |
| 2026-05-04 09:21 | -17.88676 | 37.68652 | 35158 ft | 474 kts | 52° |
| 2026-05-04 09:22 | -17.84807 | 37.74268 | 35156 ft | 474 kts | 53° |
| 2026-05-04 09:22 | -17.81146 | 37.80023 | 35154 ft | 474 kts | 56° |
| 2026-05-04 09:23 | -17.77563 | 37.85841 | 35154 ft | 474 kts | 56° |
| 2026-05-04 09:23 | -17.73962 | 37.91598 | 35153 ft | 474 kts | 55° |
| 2026-05-04 09:25 | -17.59350 | 38.14581 | 35156 ft | 474 kts | 55° |
| 2026-05-04 09:26 | -17.55693 | 38.20329 | 35157 ft | 474 kts | 55° |
| 2026-05-04 09:26 | -17.52030 | 38.26080 | 35158 ft | 474 kts | 55° |
| 2026-05-04 09:27 | -17.48384 | 38.31806 | 35162 ft | 474 kts | 55° |
| 2026-05-04 09:27 | -17.44715 | 38.37566 | 35163 ft | 474 kts | 55° |
| 2026-05-04 09:28 | -17.41060 | 38.43287 | 35164 ft | 474 kts | 55° |
| 2026-05-04 09:28 | -17.37387 | 38.49034 | 35167 ft | 474 kts | 55° |
| 2026-05-04 09:29 | -17.33707 | 38.54788 | 35166 ft | 474 kts | 55° |
| 2026-05-04 09:29 | -17.30058 | 38.60503 | 35166 ft | 474 kts | 55° |
| 2026-05-04 09:30 | -17.26397 | 38.66252 | 35166 ft | 474 kts | 56° |
| 2026-05-04 09:30 | -17.22770 | 38.72015 | 35165 ft | 473 kts | 56° |
| 2026-05-04 09:31 | -17.19167 | 38.77735 | 35163 ft | 473 kts | 56° |
| 2026-05-04 09:31 | -17.15544 | 38.83482 | 35161 ft | 473 kts | 56° |
| 2026-05-04 09:32 | -17.11909 | 38.89233 | 35158 ft | 473 kts | 56° |
| 2026-05-04 09:34 | -16.97381 | 39.12150 | 35158 ft | 473 kts | 56° |
| 2026-05-04 09:34 | -16.93759 | 39.17847 | 35158 ft | 473 kts | 56° |
| 2026-05-04 09:35 | -16.90114 | 39.23585 | 35159 ft | 473 kts | 56° |
| 2026-05-04 09:35 | -16.86473 | 39.29308 | 35160 ft | 473 kts | 56° |
| 2026-05-04 09:37 | -16.71912 | 39.52135 | 35132 ft | 473 kts | 56° |
| 2026-05-04 09:38 | -16.68865 | 39.56879 | 35130 ft | 473 kts | 56° |
| 2026-05-04 09:38 | -16.65194 | 39.62580 | 35135 ft | 472 kts | 55° |
| 2026-05-04 09:39 | -16.61523 | 39.68257 | 35137 ft | 472 kts | 55° |
| 2026-05-04 09:39 | -16.57868 | 39.73904 | 35134 ft | 472 kts | 56° |
| 2026-05-04 09:40 | -16.54207 | 39.79576 | 35135 ft | 472 kts | 55° |
| 2026-05-04 09:40 | -16.50532 | 39.85252 | 35131 ft | 472 kts | 55° |
| 2026-05-04 09:42 | -16.35844 | 40.07919 | 35131 ft | 472 kts | 55° |
| 2026-05-04 09:43 | -16.32188 | 40.13549 | 35132 ft | 472 kts | 55° |
| 2026-05-04 09:43 | -16.28500 | 40.19216 | 35128 ft | 472 kts | 55° |
| 2026-05-04 09:44 | -16.24802 | 40.24887 | 35127 ft | 472 kts | 55° |
| 2026-05-04 09:46 | -16.10058 | 40.47520 | 35129 ft | 473 kts | 55° |
| 2026-05-04 09:46 | -16.06363 | 40.53176 | 35129 ft | 473 kts | 55° |
| 2026-05-04 09:47 | -16.02679 | 40.58812 | 35127 ft | 473 kts | 55° |
| 2026-05-04 09:49 | -15.87920 | 40.81349 | 35109 ft | 471 kts | 55° |
| 2026-05-04 09:51 | -15.75020 | 41.01010 | 35079 ft | 470 kts | 55° |
| 2026-05-04 09:51 | -15.71331 | 41.06636 | 35080 ft | 470 kts | 55° |
| 2026-05-04 09:52 | -15.67659 | 41.12209 | 35073 ft | 470 kts | 55° |
| 2026-05-04 09:52 | -15.63959 | 41.17813 | 35068 ft | 470 kts | 55° |
| 2026-05-04 09:53 | -15.60261 | 41.23419 | 35076 ft | 470 kts | 55° |
| 2026-05-04 09:53 | -15.56559 | 41.29039 | 35072 ft | 470 kts | 55° |
| 2026-05-04 09:54 | -15.52886 | 41.34611 | 35070 ft | 470 kts | 55° |
| 2026-05-04 09:54 | -15.49191 | 41.40202 | 35064 ft | 470 kts | 55° |
| 2026-05-04 09:55 | -15.45496 | 41.45790 | 35064 ft | 470 kts | 55° |
| 2026-05-04 09:55 | -15.41789 | 41.51387 | 35065 ft | 470 kts | 55° |
| 2026-05-04 09:56 | -15.38088 | 41.56969 | 35062 ft | 470 kts | 55° |
| 2026-05-04 09:56 | -15.34408 | 41.62529 | 35062 ft | 470 kts | 55° |
| 2026-05-04 09:57 | -15.30703 | 41.68115 | 35065 ft | 470 kts | 55° |
| 2026-05-04 09:57 | -15.27002 | 41.73686 | 35067 ft | 470 kts | 55° |
| 2026-05-04 09:58 | -15.23300 | 41.79263 | 35063 ft | 470 kts | 55° |
| 2026-05-04 09:58 | -15.19593 | 41.84843 | 35060 ft | 470 kts | 55° |
| 2026-05-04 10:00 | -15.04791 | 42.07060 | 35063 ft | 469 kts | 55° |
| 2026-05-04 10:04 | -14.78844 | 42.45869 | 35066 ft | 468 kts | 54° |
| 2026-05-04 10:04 | -14.75130 | 42.51417 | 35065 ft | 468 kts | 54° |
| 2026-05-04 10:05 | -14.71426 | 42.56958 | 35069 ft | 468 kts | 54° |
| 2026-05-04 10:05 | -14.67706 | 42.62492 | 35064 ft | 468 kts | 54° |
| 2026-05-04 10:06 | -14.64011 | 42.67980 | 35062 ft | 468 kts | 54° |
| 2026-05-04 10:06 | -14.60294 | 42.73515 | 35065 ft | 468 kts | 54° |
| 2026-05-04 10:08 | -14.47144 | 42.92748 | 35052 ft | 469 kts | 53° |
| 2026-05-04 10:08 | -14.43306 | 42.98202 | 35043 ft | 469 kts | 53° |
| 2026-05-04 10:09 | -14.39508 | 43.03631 | 35043 ft | 469 kts | 53° |
| 2026-05-04 10:09 | -14.35697 | 43.09095 | 35039 ft | 469 kts | 53° |
| 2026-05-04 10:10 | -14.31876 | 43.14552 | 35036 ft | 469 kts | 53° |
| 2026-05-04 10:10 | -14.28044 | 43.20024 | 35033 ft | 470 kts | 53° |
| 2026-05-04 10:11 | -14.24220 | 43.25490 | 35032 ft | 470 kts | 53° |
| 2026-05-04 10:11 | -14.20391 | 43.30965 | 35031 ft | 470 kts | 53° |
| 2026-05-04 10:12 | -14.16583 | 43.36405 | 35026 ft | 470 kts | 53° |
| 2026-05-04 10:12 | -14.12745 | 43.41869 | 35022 ft | 470 kts | 53° |
| 2026-05-04 10:13 | -14.08906 | 43.47339 | 35022 ft | 471 kts | 53° |
| 2026-05-04 10:13 | -14.05062 | 43.52818 | 35020 ft | 471 kts | 53° |
| 2026-05-04 10:14 | -14.01226 | 43.58287 | 35025 ft | 471 kts | 53° |
| 2026-05-04 10:16 | -13.85867 | 43.80101 | 35020 ft | 471 kts | 53° |
| 2026-05-04 10:16 | -13.82010 | 43.85559 | 35012 ft | 471 kts | 53° |
| 2026-05-04 10:17 | -13.78192 | 43.90987 | 35020 ft | 471 kts | 53° |
| 2026-05-04 10:19 | -13.62790 | 44.12797 | 34998 ft | 471 kts | 53° |
| 2026-05-04 10:19 | -13.58941 | 44.18241 | 34998 ft | 471 kts | 53° |
| 2026-05-04 10:20 | -13.55084 | 44.23689 | 34998 ft | 471 kts | 53° |
| 2026-05-04 10:20 | -13.51252 | 44.29097 | 34999 ft | 470 kts | 53° |
| 2026-05-04 10:21 | -13.47387 | 44.34542 | 35001 ft | 470 kts | 53° |
| 2026-05-04 10:21 | -13.43523 | 44.39974 | 35000 ft | 470 kts | 53° |
| 2026-05-04 10:22 | -13.37783 | 44.48077 | 35000 ft | 469 kts | 53° |
| 2026-05-04 10:23 | -13.33939 | 44.53503 | 35000 ft | 469 kts | 53° |
| 2026-05-04 10:25 | -13.18682 | 44.75107 | 34992 ft | 467 kts | 53° |
| 2026-05-04 10:25 | -13.15504 | 44.79600 | 35003 ft | 467 kts | 53° |
| 2026-05-04 10:26 | -13.11686 | 44.84982 | 34999 ft | 466 kts | 53° |
| 2026-05-04 10:26 | -13.07872 | 44.90371 | 34989 ft | 466 kts | 53° |
| 2026-05-04 10:27 | -13.04062 | 44.95757 | 35003 ft | 466 kts | 53° |
| 2026-05-04 10:27 | -13.00271 | 45.01108 | 34985 ft | 466 kts | 53° |
| 2026-05-04 10:28 | -12.96451 | 45.06491 | 34987 ft | 466 kts | 53° |